Time;durP1;ratioP1;P1;durP2;ratioP2;P2;SDS_P1;SDS_P2;PMS_P1;PMS_P2;Temp;Humidity;BMP_temperature;BMP_pressure;BME280_temperature;BME280_humidity;BME280_pressure;Samples;Min_cycle;Max_cycle;Signal;HPM_P1;HPM_P2
2021/03/05 00:03:06;;;;;;;68.98;40.68;;;;;;;6.58;62.17;98734.07;251533;1157;101257;-67
2021/03/05 00:08:11;;;;;;;68.20;39.50;;;;;;;6.50;62.13;98734.47;247128;1158;103299;-73
2021/03/05 00:13:13;;;;;;;65.25;36.45;;;;;;;6.42;62.32;98744.58;246165;1157;103139;-67
2021/03/05 00:18:15;;;;;;;64.45;39.40;;;;;;;6.35;62.60;98746.67;251394;1152;103207;-71
2021/03/05 00:23:18;;;;;;;63.30;38.25;;;;;;;6.28;62.95;98753.16;250888;1158;101488;-64
2021/03/05 00:28:20;;;;;;;66.85;39.90;;;;;;;6.21;62.92;98751.75;250172;1153;103279;-67
2021/03/05 00:33:23;;;;;;;68.80;39.55;;;;;;;6.15;62.74;98758.22;251338;1157;101031;-66
2021/03/05 00:38:29;;;;;;;73.10;42.40;;;;;;;6.07;63.12;98748.94;251527;1151;101173;-73
2021/03/05 00:43:31;;;;;;;73.10;40.70;;;;;;;6.05;62.33;98750.81;247933;1157;103157;-71
2021/03/05 00:48:33;;;;;;;71.15;41.25;;;;;;;6.04;62.61;98741.16;251218;1150;101544;-71
2021/03/05 00:53:37;;;;;;;70.90;42.00;;;;;;;6.00;62.85;98750.16;249743;1158;103136;-72
2021/03/05 00:58:41;;;;;;;70.45;40.63;;;;;;;5.95;63.11;98746.91;249206;1152;103088;-67
2021/03/05 01:03:43;;;;;;;70.20;38.90;;;;;;;5.92;63.15;98747.86;251652;1150;100979;-66
2021/03/05 01:08:52;;;;;;;73.50;39.05;;;;;;;5.85;62.78;98747.30;250265;1151;103129;-65
2021/03/05 01:13:54;;;;;;;65.10;37.40;;;;;;;5.81;63.56;98753.66;250898;1158;102480;-71
2021/03/05 01:18:56;;;;;;;67.50;39.00;;;;;;;5.77;62.80;98745.94;249348;1151;103050;-72
2021/03/05 01:23:59;;;;;;;63.10;36.60;;;;;;;5.69;63.14;98747.16;250762;1158;103152;-69
2021/03/05 01:29:01;;;;;;;68.43;37.55;;;;;;;5.68;63.21;98744.61;250325;1151;103148;-70
2021/03/05 01:34:05;;;;;;;72.00;38.80;;;;;;;5.64;63.51;98743.05;251250;1151;103094;-64
2021/03/05 01:39:10;;;;;;;62.08;33.10;;;;;;;5.62;62.83;98748.38;251200;1150;101502;-65
2021/03/05 01:44:13;;;;;;;58.80;31.55;;;;;;;5.60;62.80;98744.94;251281;1158;101115;-64
2021/03/05 01:49:15;;;;;;;55.63;30.43;;;;;;;5.58;62.89;98749.45;251414;1150;101452;-65
2021/03/05 01:54:18;;;;;;;50.10;28.20;;;;;;;5.51;62.47;98733.98;250555;1150;102127;-65
2021/03/05 01:59:31;;;;;;;50.15;27.20;;;;;;;5.41;62.49;98736.18;250978;1151;102356;-66
2021/03/05 02:04:35;;;;;;;51.60;28.10;;;;;;;5.34;62.84;98734.75;250880;1152;101482;-71
2021/03/05 02:09:37;;;;;;;53.00;28.20;;;;;;;5.22;63.15;98744.91;251498;1149;103032;-71
2021/03/05 02:14:40;;;;;;;52.47;28.53;;;;;;;5.11;62.32;98751.61;251241;1157;103098;-72
2021/03/05 02:20:00;;;;;;;52.05;28.28;;;;;;;5.00;62.77;98743.33;249621;1151;103095;-75
2021/03/05 02:25:39;;;;;;;51.60;27.67;;;;;;;4.85;62.46;98742.20;250557;1157;103190;-67
2021/03/05 02:31:24;;;;;;;47.47;25.93;;;;;;;4.71;62.95;98751.56;250669;1150;115195;-67
2021/03/05 02:36:41;;;;;;;53.17;26.17;;;;;;;4.59;62.98;98760.00;251212;1151;103094;-67
2021/03/05 02:41:48;;;;;;;47.20;23.90;;;;;;;4.56;63.25;98759.28;248049;1151;103155;-72
2021/03/05 02:46:52;;;;;;;45.60;23.77;;;;;;;4.57;63.66;98756.56;250970;1158;101534;-65
2021/03/05 02:51:56;;;;;;;39.75;21.40;;;;;;;4.61;63.35;98768.69;251575;1151;101695;-66
2021/03/05 02:56:59;;;;;;;38.55;19.68;;;;;;;4.60;63.65;98766.13;251619;1157;102147;-66
2021/03/05 03:02:02;;;;;;;36.25;18.85;;;;;;;4.58;63.57;98760.05;250239;1150;103308;-71
2021/03/05 03:07:05;;;;;;;32.65;17.40;;;;;;;4.56;63.24;98759.28;249577;1151;103164;-72
2021/03/05 03:12:09;;;;;;;30.55;16.73;;;;;;;4.52;63.56;98758.55;249590;1150;103086;-72
2021/03/05 03:17:13;;;;;;;30.00;16.60;;;;;;;4.46;63.76;98759.66;248217;1158;103397;-70
2021/03/05 03:22:17;;;;;;;30.20;16.70;;;;;;;4.41;63.51;98756.34;251492;1151;101572;-70
2021/03/05 03:27:18;;;;;;;30.17;15.30;;;;;;;4.39;63.66;98755.56;248814;1158;103331;-73
2021/03/05 03:32:21;;;;;;;31.25;16.25;;;;;;;4.37;63.92;98767.93;247847;1154;103194;-71
2021/03/05 03:37:24;;;;;;;29.55;16.05;;;;;;;4.38;63.93;98764.40;251857;1157;101065;-72
2021/03/05 03:42:26;;;;;;;26.87;15.27;;;;;;;4.44;63.77;98755.36;250587;1151;103094;-65
2021/03/05 03:47:28;;;;;;;28.80;15.97;;;;;;;4.51;64.04;98759.45;251692;1157;102478;-70
2021/03/05 03:52:51;;;;;;;35.90;16.98;;;;;;;4.49;64.24;98762.16;249909;1149;103162;-67
2021/03/05 03:57:55;;;;;;;29.70;17.10;;;;;;;4.44;63.97;98760.63;251573;1157;101117;-63
2021/03/05 04:02:58;;;;;;;29.50;16.20;;;;;;;4.43;63.93;98765.05;251236;1152;101093;-65
2021/03/05 04:08:01;;;;;;;28.93;14.83;;;;;;;4.40;63.99;98778.34;251284;1158;101837;-68
2021/03/05 04:13:03;;;;;;;27.73;15.60;;;;;;;4.40;63.96;98778.34;251600;1150;101817;-66
2021/03/05 04:18:06;;;;;;;28.70;15.30;;;;;;;4.37;63.87;98786.38;249935;1151;103097;-66
2021/03/05 04:23:09;;;;;;;29.15;15.85;;;;;;;4.32;63.69;98798.04;250062;1150;103292;-74
2021/03/05 04:28:11;;;;;;;27.93;15.40;;;;;;;4.27;64.09;98801.69;249365;1157;103229;-66
2021/03/05 04:33:13;;;;;;;29.88;15.18;;;;;;;4.23;64.07;98805.38;251565;1150;101069;-66
2021/03/05 04:38:15;;;;;;;33.30;17.23;;;;;;;4.23;64.22;98810.64;252046;1157;101937;-66
2021/03/05 04:43:17;;;;;;;31.00;16.40;;;;;;;4.30;64.24;98815.67;251141;1151;101623;-73
2021/03/05 04:48:20;;;;;;;34.70;18.10;;;;;;;4.35;64.06;98819.84;251476;1157;100992;-65
2021/03/05 04:53:23;;;;;;;30.80;17.40;;;;;;;4.33;64.17;98824.30;250492;1157;103146;-65
2021/03/05 04:58:25;;;;;;;28.50;16.80;;;;;;;4.32;63.97;98812.06;250460;1158;103220;-65
2021/03/05 05:03:28;;;;;;;30.13;16.73;;;;;;;4.32;64.20;98816.48;250759;1153;102613;-77
2021/03/05 05:08:30;;;;;;;29.70;16.25;;;;;;;4.23;64.22;98821.17;250796;1157;103350;-71
2021/03/05 05:13:32;;;;;;;30.30;16.30;;;;;;;4.19;64.27;98821.37;250257;1151;103100;-72
2021/03/05 05:18:34;;;;;;;29.70;15.60;;;;;;;4.11;64.15;98816.41;251480;1157;101042;-74
2021/03/05 05:23:36;;;;;;;26.40;15.30;;;;;;;4.06;64.28;98825.40;248266;1151;103236;-73
2021/03/05 05:28:38;;;;;;;23.65;14.65;;;;;;;3.98;64.52;98829.19;248991;1159;103241;-67
2021/03/05 05:33:40;;;;;;;28.20;15.27;;;;;;;3.95;64.51;98834.57;250702;1151;101067;-67
2021/03/05 05:38:42;;;;;;;22.60;14.70;;;;;;;3.98;64.23;98839.72;251137;1158;101222;-68
2021/03/05 05:43:44;;;;;;;24.95;15.05;;;;;;;4.00;64.54;98840.50;251489;1149;101651;-69
2021/03/05 05:48:48;;;;;;;25.50;15.53;;;;;;;4.05;64.87;98842.98;251531;1151;101077;-68
2021/03/05 05:53:51;;;;;;;23.90;15.00;;;;;;;4.06;64.69;98830.66;251245;1151;102320;-67
2021/03/05 05:58:53;;;;;;;22.20;13.85;;;;;;;4.03;64.69;98839.53;248944;1158;103215;-65
2021/03/05 06:03:55;;;;;;;23.18;14.20;;;;;;;3.98;64.73;98833.60;248557;1150;103177;-75
2021/03/05 06:09:01;;;;;;;26.70;15.40;;;;;;;3.95;64.83;98847.73;251368;1158;101196;-69
2021/03/05 06:14:05;;;;;;;23.00;14.20;;;;;;;3.89;64.94;98837.43;250171;1150;103133;-74
2021/03/05 06:19:17;;;;;;;25.20;14.97;;;;;;;3.90;64.97;98864.61;249951;1151;103181;-74
2021/03/05 06:24:20;;;;;;;25.00;14.40;;;;;;;3.87;65.20;98860.31;251020;1151;101121;-67
2021/03/05 06:29:29;;;;;;;28.00;16.80;;;;;;;3.90;64.94;98870.73;249221;1158;103155;-74
2021/03/05 06:34:44;;;;;;;26.70;15.50;;;;;;;3.99;64.92;98877.44;250077;1150;103178;-73
2021/03/05 06:39:59;;;;;;;29.50;17.60;;;;;;;4.06;65.18;98886.81;251384;1157;101355;-68
2021/03/05 06:45:10;;;;;;;28.05;17.78;;;;;;;4.11;65.24;98894.53;251192;1151;101422;-67
2021/03/05 06:50:21;;;;;;;30.40;17.35;;;;;;;4.14;65.14;98897.05;251668;1157;101190;-67
2021/03/05 06:55:24;;;;;;;31.53;19.57;;;;;;;4.19;65.17;98905.64;250850;1151;103133;-73
2021/03/05 07:00:26;;;;;;;36.50;21.47;;;;;;;4.22;64.96;98905.53;250794;1157;103362;-75
2021/03/05 07:05:57;;;;;;;29.45;18.75;;;;;;;4.22;65.23;98923.97;247375;1153;103151;-77
2021/03/05 07:10:59;;;;;;;30.20;19.77;;;;;;;4.22;65.21;98919.55;250803;1157;103027;-75
2021/03/05 07:16:03;;;;;;;35.70;20.40;;;;;;;4.26;65.08;98921.14;250745;1151;102911;-66
2021/03/05 07:21:11;;;;;;;32.90;20.30;;;;;;;4.29;65.28;98935.98;250681;1156;103071;-73
2021/03/05 07:26:13;;;;;;;39.05;22.80;;;;;;;4.32;65.11;98941.14;251711;1151;102893;-74
2021/03/05 07:31:23;;;;;;;36.80;22.80;;;;;;;4.40;65.41;98933.78;250505;1158;103152;-67
2021/03/05 07:36:30;;;;;;;39.70;24.45;;;;;;;4.47;65.18;98942.31;250580;1151;103030;-69
2021/03/05 07:41:34;;;;;;;36.85;23.30;;;;;;;4.52;65.10;98943.01;246037;1151;103155;-73
2021/03/05 07:46:37;;;;;;;31.10;20.65;;;;;;;4.54;65.47;98945.56;248644;1158;103226;-74
2021/03/05 07:51:40;;;;;;;31.95;21.25;;;;;;;4.58;65.05;98952.43;251536;1157;101114;-75
2021/03/05 07:56:48;;;;;;;31.63;19.33;;;;;;;4.61;65.30;98957.58;249688;1151;103049;-72
2021/03/05 08:01:50;;;;;;;30.70;19.10;;;;;;;4.62;65.00;98959.29;251109;1158;102009;-72
2021/03/05 08:07:07;;;;;;;30.13;19.47;;;;;;;4.64;65.19;98965.38;251920;1149;101249;-65
2021/03/05 08:12:34;;;;;;;26.10;16.45;;;;;;;4.63;64.98;98967.16;250642;1158;100765;-72
2021/03/05 08:17:44;;;;;;;22.20;13.40;;;;;;;4.66;65.37;98988.13;250318;1150;103181;-72
2021/03/05 08:22:58;;;;;;;13.50;8.95;;;;;;;4.67;64.82;98987.20;248384;1157;103226;-72
2021/03/05 08:28:05;;;;;;;10.60;6.95;;;;;;;4.65;64.70;98991.69;248527;1151;103043;-68
2021/03/05 08:33:08;;;;;;;10.70;6.87;;;;;;;4.61;65.05;98991.84;251588;1157;101111;-67
2021/03/05 08:38:19;;;;;;;9.78;6.68;;;;;;;4.49;64.61;99007.22;250246;1152;103088;-67
2021/03/05 08:43:27;;;;;;;13.40;7.97;;;;;;;4.41;64.46;99011.05;250903;1159;102257;-67
2021/03/05 08:48:40;;;;;;;9.80;6.50;;;;;;;4.37;64.46;99012.94;251106;1152;100883;-67
2021/03/05 08:53:50;;;;;;;10.80;6.70;;;;;;;4.30;64.52;99019.34;250433;1153;103283;-69
2021/03/05 08:59:00;;;;;;;10.10;6.65;;;;;;;4.25;64.41;99034.48;251313;1151;101018;-67
2021/03/05 09:04:19;;;;;;;9.70;6.10;;;;;;;4.25;64.94;99045.02;250002;1157;101708;-75
2021/03/05 09:09:24;;;;;;;12.25;8.03;;;;;;;4.26;64.60;99049.36;251286;1151;101084;-76
2021/03/05 09:14:28;;;;;;;14.63;8.70;;;;;;;4.26;64.74;99063.38;251416;1157;101091;-76
2021/03/05 09:19:36;;;;;;;13.13;7.05;;;;;;;4.32;64.88;99064.95;252020;1151;101492;-75
2021/03/05 09:24:49;;;;;;;13.00;8.58;;;;;;;4.41;64.97;99071.64;251920;1157;101091;-74
2021/03/05 09:29:52;;;;;;;11.75;7.45;;;;;;;4.42;64.72;99079.50;251202;1152;101246;-73
2021/03/05 09:34:59;;;;;;;10.03;6.45;;;;;;;4.42;64.95;99082.14;251585;1157;101687;-73
2021/03/05 09:40:07;;;;;;;12.18;6.58;;;;;;;4.40;64.42;99089.23;251374;1151;101686;-73
2021/03/05 09:45:50;;;;;;;9.55;6.05;;;;;;;4.39;64.56;99099.84;251367;1157;101828;-73
2021/03/05 09:50:57;;;;;;;10.30;6.10;;;;;;;4.34;64.36;99109.66;251908;1157;101321;-67
2021/03/05 09:56:09;;;;;;;9.23;6.65;;;;;;;4.27;64.64;99093.22;250702;1158;101967;-66
2021/03/05 10:01:14;;;;;;;9.98;6.70;;;;;;;4.30;64.54;99113.33;251337;1157;101618;-67
2021/03/05 10:06:17;;;;;;;13.45;7.75;;;;;;;4.33;64.55;99108.81;251159;1150;100921;-67
2021/03/05 10:11:29;;;;;;;14.33;8.63;;;;;;;4.41;65.04;99124.34;251479;1151;102178;-73
2021/03/05 10:16:41;;;;;;;13.00;8.30;;;;;;;4.54;65.08;99130.03;251165;1157;101342;-73
2021/03/05 10:21:49;;;;;;;10.15;7.45;;;;;;;4.61;64.71;99144.70;251576;1157;101093;-66
2021/03/05 10:27:21;;;;;;;11.80;7.23;;;;;;;4.63;64.51;99148.16;251300;1151;101083;-73
2021/03/05 10:32:25;;;;;;;12.60;7.90;;;;;;;4.65;64.27;99148.95;251502;1157;101063;-71
2021/03/05 10:37:27;;;;;;;10.58;6.68;;;;;;;4.62;64.55;99163.12;247390;1158;103257;-73
2021/03/05 10:42:31;;;;;;;10.43;7.20;;;;;;;4.66;64.72;99171.77;250866;1151;101205;-70
2021/03/05 10:47:34;;;;;;;12.73;7.63;;;;;;;4.72;63.95;99175.05;251851;1157;101155;-71
2021/03/05 10:52:36;;;;;;;10.03;6.83;;;;;;;4.82;64.29;99178.19;251372;1151;101631;-71
2021/03/05 10:57:41;;;;;;;11.07;6.63;;;;;;;4.91;64.06;99188.41;251082;1157;101598;-66
2021/03/05 11:02:44;;;;;;;12.60;7.20;;;;;;;5.00;64.26;99186.37;251530;1151;102335;-66
2021/03/05 11:07:46;;;;;;;9.90;7.35;;;;;;;4.96;63.37;99186.48;251255;1157;101162;-71
2021/03/05 11:12:48;;;;;;;11.57;7.07;;;;;;;4.93;63.33;99198.91;251139;1151;101166;-66
2021/03/05 11:17:50;;;;;;;11.53;7.33;;;;;;;4.85;63.46;99203.59;250971;1158;101201;-67
2021/03/05 11:22:53;;;;;;;14.40;8.13;;;;;;;4.79;63.06;99198.53;251324;1151;101360;-66
2021/03/05 11:27:56;;;;;;;14.60;7.93;;;;;;;4.74;63.48;99214.52;251812;1157;101823;-72
2021/03/05 11:32:58;;;;;;;14.85;8.50;;;;;;;4.70;63.07;99210.28;250716;1150;103055;-71
2021/03/05 11:38:00;;;;;;;15.35;7.80;;;;;;;4.74;62.80;99222.43;251529;1157;101157;-64
2021/03/05 11:43:04;;;;;;;12.00;7.23;;;;;;;4.77;63.03;99221.47;251193;1153;101210;-71
2021/03/05 11:48:06;;;;;;;14.30;7.23;;;;;;;4.78;62.47;99224.04;250977;1157;103091;-68
2021/03/05 11:53:09;;;;;;;11.40;6.58;;;;;;;4.83;62.73;99227.39;251488;1154;101939;-73
2021/03/05 11:58:11;;;;;;;12.60;5.90;;;;;;;4.91;62.49;99225.33;251874;1151;101196;-67
2021/03/05 12:03:14;;;;;;;14.55;6.85;;;;;;;4.94;62.63;99230.48;251852;1150;101504;-67
2021/03/05 12:08:16;;;;;;;11.70;7.10;;;;;;;4.89;61.83;99240.36;251722;1157;100979;-73
2021/03/05 12:13:18;;;;;;;9.93;5.83;;;;;;;4.86;61.87;99250.16;251195;1151;101176;-72
2021/03/05 12:18:24;;;;;;;10.80;7.00;;;;;;;4.86;61.91;99252.80;249465;1157;103813;-66
2021/03/05 12:23:31;;;;;;;12.90;6.70;;;;;;;4.92;62.00;99253.41;251005;1151;101775;-66
2021/03/05 12:28:33;;;;;;;13.80;7.00;;;;;;;4.98;62.52;99255.83;251102;1158;101286;-66
2021/03/05 12:33:36;;;;;;;11.65;7.30;;;;;;;5.02;62.24;99250.45;251338;1151;101577;-66
2021/03/05 12:38:41;;;;;;;13.55;7.85;;;;;;;5.02;61.61;99268.91;251460;1157;101159;-71
2021/03/05 12:43:43;;;;;;;13.65;7.85;;;;;;;4.95;61.39;99274.40;250800;1152;102048;-72
2021/03/05 12:48:45;;;;;;;14.60;8.80;;;;;;;4.88;61.49;99279.95;249069;1157;103112;-66
2021/03/05 12:53:47;;;;;;;14.25;8.90;;;;;;;4.86;61.82;99287.07;252142;1149;100952;-67
2021/03/05 12:58:51;;;;;;;14.53;8.07;;;;;;;4.81;61.62;99296.90;251323;1157;103009;-75
2021/03/05 13:03:54;;;;;;;18.35;9.85;;;;;;;4.77;61.41;99305.83;250884;1151;103120;-67
2021/03/05 13:08:56;;;;;;;15.07;8.93;;;;;;;4.67;61.57;99311.41;251719;1157;101955;-67
2021/03/05 13:13:58;;;;;;;13.00;7.65;;;;;;;4.58;61.50;99321.39;247422;1157;104543;-66
2021/03/05 13:19:00;;;;;;;14.25;8.23;;;;;;;4.47;60.97;99319.97;251536;1157;103152;-75
2021/03/05 13:24:03;;;;;;;15.67;8.97;;;;;;;4.44;61.42;99327.97;248766;1157;103094;-67
2021/03/05 13:29:05;;;;;;;14.60;8.43;;;;;;;4.41;61.51;99337.75;251922;1157;103072;-72
2021/03/05 13:34:07;;;;;;;13.40;8.00;;;;;;;4.43;61.27;99339.44;247049;1151;103149;-73
2021/03/05 13:39:09;;;;;;;12.70;7.05;;;;;;;4.46;61.28;99349.02;248163;1157;103225;-71
2021/03/05 13:44:12;;;;;;;11.03;6.90;;;;;;;4.44;61.28;99350.83;251500;1153;100968;-67
2021/03/05 13:49:14;;;;;;;15.65;7.15;;;;;;;4.43;60.93;99352.61;251786;1157;101020;-66
2021/03/05 13:54:16;;;;;;;13.53;7.00;;;;;;;4.46;61.42;99363.05;252163;1149;101141;-73
2021/03/05 13:59:18;;;;;;;12.80;7.00;;;;;;;4.48;61.04;99368.27;249590;1157;103072;-67
2021/03/05 14:04:20;;;;;;;11.03;6.53;;;;;;;4.48;60.81;99378.80;249322;1149;103238;-74
2021/03/05 14:09:22;;;;;;;10.37;6.07;;;;;;;4.43;60.78;99386.01;249291;1157;103174;-71
2021/03/05 14:14:24;;;;;;;11.13;5.58;;;;;;;4.39;60.64;99401.05;252211;1149;101002;-71
2021/03/05 14:19:27;;;;;;;9.60;5.75;;;;;;;4.37;60.66;99402.86;252214;1157;101101;-66
2021/03/05 14:24:29;;;;;;;9.23;5.33;;;;;;;4.37;60.40;99402.86;251595;1150;101434;-67
2021/03/05 14:29:31;;;;;;;11.75;6.75;;;;;;;4.40;60.36;99396.64;248783;1157;103171;-65
2021/03/05 14:34:33;;;;;;;13.35;5.90;;;;;;;4.42;60.19;99408.01;251724;1149;101161;-70
2021/03/05 14:39:37;;;;;;;8.67;5.40;;;;;;;4.45;59.84;99421.06;252128;1156;101484;-66
2021/03/05 14:44:40;;;;;;;11.97;6.00;;;;;;;4.44;60.04;99427.25;251686;1149;101099;-66
2021/03/05 14:49:42;;;;;;;11.27;6.23;;;;;;;4.42;59.66;99435.22;249931;1157;103052;-74
2021/03/05 14:54:45;;;;;;;12.10;5.50;;;;;;;4.37;59.39;99444.16;245960;1157;103190;-73
2021/03/05 14:59:47;;;;;;;16.30;6.38;;;;;;;4.30;59.13;99437.35;251566;1149;101063;-73
2021/03/05 15:04:49;;;;;;;14.95;7.55;;;;;;;4.25;59.51;99445.41;250163;1149;103097;-72
2021/03/05 15:09:51;;;;;;;15.30;6.95;;;;;;;4.26;59.49;99450.61;250784;1157;103068;-74
2021/03/05 15:14:53;;;;;;;14.40;7.50;;;;;;;4.24;59.32;99459.46;249006;1157;103079;-73
2021/03/05 15:19:55;;;;;;;13.33;6.63;;;;;;;4.15;58.99;99472.92;252030;1157;101329;-74
2021/03/05 15:24:58;;;;;;;16.40;6.30;;;;;;;4.10;58.93;99472.17;245928;1149;103238;-73
2021/03/05 15:30:00;;;;;;;14.00;6.65;;;;;;;4.05;58.62;99482.86;248286;1157;103226;-73
2021/03/05 15:35:02;;;;;;;12.10;5.75;;;;;;;4.03;58.74;99493.41;252122;1149;101029;-72
2021/03/05 15:40:06;;;;;;;10.15;5.20;;;;;;;4.06;59.04;99500.38;250174;1156;103614;-72
2021/03/05 15:45:10;;;;;;;9.73;5.20;;;;;;;4.09;58.85;99502.92;251732;1149;101245;-66
2021/03/05 15:50:14;;;;;;;12.05;5.20;;;;;;;4.10;58.51;99517.81;252165;1157;101284;-72
2021/03/05 15:55:16;;;;;;;10.67;5.80;;;;;;;4.10;58.75;99527.48;252187;1150;101167;-66
2021/03/05 16:00:18;;;;;;;12.70;5.27;;;;;;;4.11;58.50;99543.26;251579;1157;103088;-71
2021/03/05 16:05:20;;;;;;;12.55;5.25;;;;;;;4.14;58.71;99547.55;251534;1149;103085;-73
2021/03/05 16:10:22;;;;;;;11.35;4.98;;;;;;;4.13;58.42;99561.64;252009;1157;101154;-65
2021/03/05 16:15:28;;;;;;;12.00;5.10;;;;;;;4.12;58.58;99565.19;252242;1149;100947;-66
2021/03/05 16:20:31;;;;;;;13.30;5.10;;;;;;;4.10;58.21;99574.89;251900;1157;103187;-68
2021/03/05 16:25:33;;;;;;;12.70;5.05;;;;;;;4.10;58.18;99585.42;252209;1149;101614;-67
2021/03/05 16:30:35;;;;;;;14.13;5.17;;;;;;;4.11;57.96;99592.41;250607;1157;103204;-67
2021/03/05 16:35:38;;;;;;;16.07;4.93;;;;;;;4.10;57.89;99612.63;252065;1149;101569;-77
2021/03/05 16:40:42;;;;;;;16.97;5.00;;;;;;;4.06;57.38;99612.75;251868;1157;101116;-68
2021/03/05 16:45:44;;;;;;;9.67;4.73;;;;;;;4.06;57.29;99624.15;251613;1149;103069;-79
2021/03/05 16:50:46;;;;;;;13.10;5.70;;;;;;;4.01;57.29;99641.85;250015;1157;103306;-76
2021/03/05 16:55:48;;;;;;;12.35;5.75;;;;;;;3.96;57.17;99649.84;249939;1150;103536;-78
2021/03/05 17:00:51;;;;;;;13.30;5.60;;;;;;;3.95;57.29;99668.34;251717;1157;101190;-79
2021/03/05 17:05:53;;;;;;;12.20;4.90;;;;;;;3.92;57.29;99679.80;252239;1150;101023;-78
2021/03/05 17:10:55;;;;;;;10.85;4.70;;;;;;;3.89;56.94;99687.77;251820;1157;101118;-72
2021/03/05 17:15:57;;;;;;;11.60;4.53;;;;;;;3.86;56.76;99692.25;251834;1149;101117;-78
2021/03/05 17:21:04;;;;;;;14.80;5.30;;;;;;;3.86;56.53;99703.64;251768;1157;101954;-79
2021/03/05 17:26:07;;;;;;;13.80;4.83;;;;;;;3.88;56.32;99709.75;251734;1150;101025;-72
2021/03/05 17:31:10;;;;;;;12.00;5.90;;;;;;;3.81;56.29;99716.06;252129;1157;101115;-72
2021/03/05 17:36:12;;;;;;;16.70;7.40;;;;;;;3.78;56.08;99724.89;252000;1150;101132;-72
2021/03/05 17:41:14;;;;;;;17.20;7.63;;;;;;;3.70;56.20;99734.74;252269;1157;100987;-72
2021/03/05 17:46:18;;;;;;;15.70;7.35;;;;;;;3.70;56.26;99731.22;245502;1151;103213;-70
2021/03/05 17:51:29;;;;;;;20.00;9.15;;;;;;;3.63;56.00;99748.05;250819;1158;103065;-78
2021/03/05 17:56:32;;;;;;;19.45;9.70;;;;;;;3.56;56.12;99756.08;252168;1149;101190;-78
2021/03/05 18:01:34;;;;;;;20.33;9.75;;;;;;;3.52;56.13;99759.69;251867;1157;101217;-79
2021/03/05 18:06:37;;;;;;;26.05;11.20;;;;;;;3.45;56.04;99768.61;248529;1157;103222;-69
2021/03/05 18:11:39;;;;;;;29.65;12.55;;;;;;;3.32;55.97;99777.66;251354;1157;101837;-73
2021/03/05 18:16:55;;;;;;;34.77;15.33;;;;;;;3.21;56.40;99775.25;251743;1150;101119;-72
2021/03/05 18:21:58;;;;;;;35.03;14.13;;;;;;;3.15;56.19;99796.41;249341;1158;103072;-79
2021/03/05 18:27:00;;;;;;;33.70;15.75;;;;;;;3.12;56.29;99798.23;251223;1149;103047;-79
2021/03/05 18:32:04;;;;;;;36.40;17.50;;;;;;;3.05;56.49;99808.86;251779;1157;101023;-80
2021/03/05 18:37:06;;;;;;;32.50;16.63;;;;;;;3.00;56.72;99810.73;248763;1150;103239;-77
2021/03/05 18:42:08;;;;;;;31.50;15.80;;;;;;;3.02;56.61;99818.57;248238;1157;103114;-77
2021/03/05 18:47:11;;;;;;;30.57;14.70;;;;;;;2.99;56.52;99837.03;248544;1150;103209;-76
2021/03/05 18:52:13;;;;;;;31.25;14.40;;;;;;;2.97;56.54;99844.09;245971;1158;103177;-72
2021/03/05 18:57:15;;;;;;;30.13;15.40;;;;;;;2.94;56.57;99849.41;248916;1157;103173;-75
2021/03/05 19:02:18;;;;;;;34.33;16.30;;;;;;;2.92;56.28;99859.06;247478;1157;103171;-73
2021/03/05 19:07:20;;;;;;;35.20;16.77;;;;;;;2.95;56.29;99873.02;250030;1157;103215;-72
2021/03/05 19:12:23;;;;;;;38.30;17.40;;;;;;;2.93;56.19;99871.34;249771;1151;103082;-73
2021/03/05 19:17:25;;;;;;;40.75;19.00;;;;;;;2.94;56.46;99887.08;250850;1157;101082;-73
2021/03/05 19:22:35;;;;;;;40.10;17.53;;;;;;;2.91;56.34;99886.27;251631;1151;101018;-82
2021/03/05 19:27:39;;;;;;;41.75;18.70;;;;;;;2.95;56.22;99893.20;251586;1157;101276;-88
2021/03/05 19:32:42;;;;;;;37.27;18.37;;;;;;;2.95;56.06;99903.71;250366;1151;103068;-89
2021/03/05 19:37:45;;;;;;;37.97;16.07;;;;;;;2.96;55.92;99895.81;250186;1150;103258;-83
2021/03/05 19:42:47;;;;;;;37.95;16.55;;;;;;;3.01;56.26;99907.11;251635;1153;101019;-83
2021/03/05 19:47:52;;;;;;;33.35;15.40;;;;;;;3.00;55.96;99913.27;249744;1151;103228;-85
2021/03/05 19:52:58;;;;;;;33.65;14.78;;;;;;;2.99;55.91;99916.80;249670;1158;103538;-87
2021/03/05 19:58:01;;;;;;;39.40;16.85;;;;;;;3.00;55.77;99930.81;250939;1158;101122;-84
2021/03/05 20:03:03;;;;;;;40.95;17.20;;;;;;;2.98;55.60;99936.08;251368;1152;101737;-82
2021/03/05 20:08:06;;;;;;;42.90;18.40;;;;;;;2.95;55.76;99936.13;251289;1157;101439;-82
2021/03/05 20:13:08;;;;;;;47.07;21.40;;;;;;;2.92;55.82;99949.34;251239;1152;102972;-85
2021/03/05 20:18:10;;;;;;;41.45;18.68;;;;;;;2.87;55.62;99956.42;251319;1157;102086;-85
2021/03/05 20:23:34;;;;;;;46.43;21.70;;;;;;;2.81;55.43;99956.52;250825;1153;101052;-85
2021/03/05 20:28:37;;;;;;;50.40;21.53;;;;;;;2.78;55.55;99962.68;250622;1158;103056;-88
2021/03/05 20:33:39;;;;;;;46.05;21.58;;;;;;;2.74;55.53;99965.39;251179;1153;101542;-90
2021/03/05 20:38:41;;;;;;;43.63;20.50;;;;;;;2.66;55.29;99964.66;251253;1158;100918;-82
2021/03/05 20:43:44;;;;;;;44.90;19.85;;;;;;;2.58;55.89;99973.52;250958;1152;101957;-84
2021/03/05 20:48:46;;;;;;;46.23;20.43;;;;;;;2.48;55.89;99977.17;248494;1159;103161;-82
2021/03/05 20:53:48;;;;;;;47.40;20.60;;;;;;;2.42;55.73;99987.75;250593;1152;101869;-88
2021/03/05 20:58:50;;;;;;;49.03;21.93;;;;;;;2.33;55.72;99982.61;251077;1158;101181;-86
2021/03/05 21:03:53;;;;;;;44.63;21.00;;;;;;;2.32;55.86;99986.14;250234;1153;103311;-82
2021/03/05 21:08:55;;;;;;;40.30;18.90;;;;;;;2.27;55.76;99995.82;251766;1157;101338;-82
2021/03/05 21:13:58;;;;;;;41.57;18.83;;;;;;;2.17;56.08;99999.45;249704;1156;103222;-75
2021/03/05 21:19:00;;;;;;;35.85;17.70;;;;;;;2.10;56.49;100003.91;251803;1157;101792;-76
2021/03/05 21:24:06;;;;;;;37.00;16.90;;;;;;;2.03;56.30;100008.36;246808;1151;103193;-78
2021/03/05 21:29:08;;;;;;;37.00;17.10;;;;;;;2.01;56.15;100007.53;248201;1157;103187;-83
2021/03/05 21:34:11;;;;;;;47.20;20.50;;;;;;;2.02;56.33;100014.51;250103;1150;103049;-85
2021/03/05 21:39:13;;;;;;;45.58;20.65;;;;;;;2.01;56.15;100018.03;251733;1157;103051;-74
2021/03/05 21:44:15;;;;;;;47.73;21.27;;;;;;;2.01;56.43;100015.41;249715;1149;103277;-75
2021/03/05 21:49:18;;;;;;;47.70;20.70;;;;;;;2.00;56.67;100023.28;250163;1157;103072;-81
2021/03/05 21:54:30;;;;;;;51.35;21.50;;;;;;;1.98;56.36;100018.06;251297;1151;101152;-74
2021/03/05 21:59:32;;;;;;;47.30;21.20;;;;;;;2.00;56.40;100023.28;251911;1157;101482;-74
2021/03/05 22:04:35;;;;;;;51.53;21.97;;;;;;;2.01;56.24;100025.91;250699;1153;103069;-82
2021/03/05 22:09:50;;;;;;;45.63;21.08;;;;;;;1.98;56.47;100023.31;250950;1157;103215;-78
2021/03/05 22:14:53;;;;;;;45.20;20.00;;;;;;;1.94;56.49;100025.97;251635;1151;103087;-79
2021/03/05 22:19:55;;;;;;;47.87;22.57;;;;;;;1.91;56.57;100036.53;251384;1157;100848;-74
2021/03/05 22:24:58;;;;;;;50.10;21.50;;;;;;;1.89;56.50;100045.27;251701;1150;101470;-73
2021/03/05 22:30:00;;;;;;;51.80;22.90;;;;;;;1.87;56.10;100043.56;251751;1157;101140;-73
2021/03/05 22:35:05;;;;;;;50.05;22.28;;;;;;;1.82;56.65;100058.47;251740;1151;101269;-76
2021/03/05 22:40:07;;;;;;;52.40;23.15;;;;;;;1.73;56.57;100062.05;251628;1157;100937;-83
2021/03/05 22:45:10;;;;;;;52.60;22.30;;;;;;;1.74;56.53;100060.32;248115;1150;103225;-85
2021/03/05 22:50:12;;;;;;;53.05;24.40;;;;;;;1.69;56.64;100067.34;247568;1157;103206;-76
2021/03/05 22:55:15;;;;;;;49.77;24.27;;;;;;;1.59;56.44;100070.05;251674;1151;101289;-76
2021/03/05 23:00:29;;;;;;;51.20;23.20;;;;;;;1.55;56.60;100072.72;251702;1157;101061;-76
2021/03/05 23:05:32;;;;;;;54.47;23.10;;;;;;;1.53;56.69;100070.13;251729;1151;101072;-76
2021/03/05 23:10:37;;;;;;;57.15;23.35;;;;;;;1.52;56.99;100078.86;251568;1158;102520;-83